Time;durP1;ratioP1;P1;durP2;ratioP2;P2;SDS_P1;SDS_P2;PMS_P1;PMS_P2;Temp;Humidity;BMP_temperature;BMP_pressure;BME280_temperature;BME280_humidity;BME280_pressure;Samples;Min_cycle;Max_cycle;Signal;HPM_P1;HPM_P2
2022/09/02 00:01:21;;;;;;;2.70;2.00;;;;;;;13.63;100.00;99419.63;4366228;32;20039;-71
2022/09/02 00:03:49;;;;;;;2.55;1.40;;;;;;;13.98;100.00;99453.41;4369875;32;20319;-67
2022/09/02 00:06:16;;;;;;;1.37;1.15;;;;;;;13.73;100.00;99462.19;4377882;32;20172;-68
2022/09/02 00:08:43;;;;;;;1.80;1.25;;;;;;;13.70;100.00;99458.09;4414327;32;20042;-69
2022/09/02 00:11:15;;;;;;;4.35;1.48;;;;;;;13.37;100.00;99422.16;4400874;32;20051;-71
2022/09/02 00:13:42;;;;;;;1.60;1.50;;;;;;;13.95;100.00;99460.16;4412893;32;20064;-67
2022/09/02 00:16:10;;;;;;;2.50;1.62;;;;;;;13.66;100.00;99448.88;4461043;32;20122;-67
2022/09/02 00:18:38;;;;;;;1.85;1.67;;;;;;;13.53;100.00;99452.00;4462739;32;20033;-68
2022/09/02 00:21:04;;;;;;;2.83;1.70;;;;;;;13.47;100.00;99447.66;4462468;32;20063;-71
2022/09/02 00:23:39;;;;;;;2.37;1.27;;;;;;;13.27;100.00;99411.19;4462771;32;20071;-68
2022/09/02 00:26:06;;;;;;;1.98;1.40;;;;;;;13.22;100.00;99403.06;4462789;32;20046;-67
2022/09/02 00:28:34;;;;;;;1.77;1.67;;;;;;;13.53;100.00;99452.84;4430038;32;20038;-67
2022/09/02 00:31:01;;;;;;;2.80;2.10;;;;;;;13.38;100.00;99445.41;4427941;32;20124;-67
2022/09/02 00:33:27;;;;;;;1.70;1.42;;;;;;;13.25;100.00;99418.75;4427416;32;20465;-67
2022/09/02 00:35:54;;;;;;;2.53;1.95;;;;;;;13.21;100.00;99439.25;4420369;32;20047;-67
2022/09/02 00:38:20;;;;;;;1.10;1.00;;;;;;;13.24;100.00;99444.16;4417423;32;20138;-67
2022/09/02 00:40:48;;;;;;;5.37;1.37;;;;;;;13.05;100.00;99414.81;4429964;32;20097;-67
2022/09/02 00:43:44;;;;;;;3.47;1.35;;;;;;;13.17;100.00;99411.12;4427505;32;20041;-67
2022/09/02 00:46:13;;;;;;;7.90;1.37;;;;;;;13.30;100.00;99416.09;4428816;32;20423;-67
2022/09/02 00:48:54;;;;;;;1.25;1.20;;;;;;;13.39;100.00;99447.03;4396696;32;20074;-70
2022/09/02 00:51:21;;;;;;;3.12;2.33;;;;;;;13.53;100.00;99449.28;4384624;32;20043;-69
2022/09/02 00:53:49;;;;;;;2.17;1.65;;;;;;;13.10;100.00;99435.69;4383696;32;20053;-68
2022/09/02 00:56:21;;;;;;;2.17;1.30;;;;;;;13.23;100.00;99447.97;4387119;32;20052;-69
2022/09/02 00:58:50;;;;;;;1.60;1.50;;;;;;;13.43;100.00;99448.16;4384054;32;20046;-68
2022/09/02 01:01:17;;;;;;;2.37;1.37;;;;;;;13.19;100.00;99450.34;4404880;32;20038;-69
2022/09/02 01:03:44;;;;;;;3.30;1.35;;;;;;;12.54;100.00;99361.09;4429379;32;20033;-68
2022/09/02 01:06:14;;;;;;;1.30;1.25;;;;;;;12.79;100.00;99426.44;4429326;32;20046;-67
2022/09/02 01:08:46;;;;;;;2.42;1.55;;;;;;;13.33;100.00;99458.06;4426897;32;20454;-67
2022/09/02 01:11:13;;;;;;;3.03;1.20;;;;;;;13.12;100.00;99446.25;4390656;32;20069;-67
2022/09/02 01:13:42;;;;;;;3.05;1.40;;;;;;;12.60;100.00;99424.06;4383169;32;20071;-67
2022/09/02 01:16:33;;;;;;;2.65;1.25;;;;;;;13.00;100.00;99455.31;4383529;32;20093;-67
2022/09/02 01:19:02;;;;;;;;;;;;;;;12.89;100.00;99450.84;4385511;32;20052;-67
2022/09/02 01:21:28;;;;;;;6.07;1.58;;;;;;;13.23;100.00;99442.56;4414072;32;19938;-67
2022/09/02 01:23:54;;;;;;;2.00;1.23;;;;;;;12.63;100.00;99401.97;4413395;32;20042;-67
2022/09/02 01:26:22;;;;;;;2.22;1.70;;;;;;;12.81;100.00;99451.31;4398910;32;20047;-67
2022/09/02 01:28:50;;;;;;;1.95;1.00;;;;;;;12.42;100.00;99397.41;4398556;32;20047;-67
2022/09/02 01:31:17;;;;;;;6.45;1.30;;;;;;;12.39;100.00;99403.31;4397972;32;20076;-67
2022/09/02 01:33:44;;;;;;;1.73;1.30;;;;;;;12.49;100.00;99389.91;4397042;32;20031;-67
2022/09/02 01:36:16;;;;;;;1.60;1.40;;;;;;;12.87;100.00;99451.09;4397881;32;20091;-68
2022/09/02 01:38:49;;;;;;;2.75;1.00;;;;;;;12.55;100.00;99397.00;4397671;32;20082;-67
2022/09/02 01:41:16;;;;;;;7.70;1.40;;;;;;;12.59;100.00;99406.25;4399782;32;20027;-68
2022/09/02 01:43:42;;;;;;;2.50;1.33;;;;;;;12.47;100.00;99402.88;4426476;32;20048;-67
2022/09/02 01:46:09;;;;;;;8.50;1.30;;;;;;;12.68;100.00;99453.38;4426900;32;20066;-68
2022/09/02 01:48:35;;;;;;;5.43;2.30;;;;;;;12.77;100.00;99451.03;4428647;32;20065;-68
2022/09/02 01:51:03;;;;;;;2.00;1.15;;;;;;;12.52;100.00;99416.44;4428500;32;20048;-67
2022/09/02 01:53:31;;;;;;;1.30;1.20;;;;;;;12.91;100.00;99456.84;4423105;32;20118;-67
2022/09/02 01:55:57;;;;;;;3.25;2.03;;;;;;;12.61;100.00;99414.91;4412628;32;20056;-70
2022/09/02 01:58:24;;;;;;;3.17;1.90;;;;;;;12.15;100.00;99387.38;4380824;32;20023;-67
2022/09/02 02:00:50;;;;;;;2.62;1.73;;;;;;;12.19;100.00;99385.81;4383096;32;20040;-68
2022/09/02 02:03:18;;;;;;;4.12;1.30;;;;;;;12.56;100.00;99444.56;4382599;32;20090;-68
2022/09/02 02:05:44;;;;;;;1.55;1.55;;;;;;;12.59;100.00;99448.62;4383479;32;20045;-67
2022/09/02 02:08:13;;;;;;;9.98;1.65;;;;;;;12.46;100.00;99444.44;4381343;32;20097;-70
2022/09/02 02:10:41;;;;;;;3.33;1.27;;;;;;;12.40;100.00;99435.47;4390955;32;20050;-67
2022/09/02 02:13:09;;;;;;;3.00;1.70;;;;;;;12.51;100.00;99447.22;4413510;32;20080;-67
2022/09/02 02:15:37;;;;;;;2.90;1.30;;;;;;;12.50;100.00;99440.19;4412601;32;20063;-67
2022/09/02 02:18:04;;;;;;;2.40;1.80;;;;;;;12.45;100.00;99435.53;4413143;32;20038;-67
2022/09/02 02:20:32;;;;;;;4.35;1.65;;;;;;;12.28;100.00;99424.78;4398987;32;20360;-67
2022/09/02 02:22:58;;;;;;;1.83;1.70;;;;;;;12.40;100.00;99429.25;4412066;32;20062;-68
2022/09/02 02:25:25;;;;;;;10.13;1.90;;;;;;;12.33;100.00;99435.66;4413644;32;20419;-68
2022/09/02 02:27:53;;;;;;;2.95;1.77;;;;;;;12.21;100.00;99439.56;4413349;32;20027;-68
2022/09/02 02:30:20;;;;;;;1.80;1.58;;;;;;;12.15;100.00;99433.25;4439780;32;20068;-71
2022/09/02 02:32:47;;;;;;;4.50;1.40;;;;;;;12.04;100.00;99426.09;4446070;32;20080;-68
2022/09/02 02:35:17;;;;;;;2.08;1.70;;;;;;;11.81;100.00;99390.16;4418598;32;20345;-68
2022/09/02 02:37:47;;;;;;;2.53;1.75;;;;;;;12.23;100.00;99402.31;4367436;32;20585;-68
2022/09/02 02:40:18;;;;;;;2.67;1.55;;;;;;;12.31;100.00;99421.59;4370731;32;20061;-71
2022/09/02 02:42:45;;;;;;;1.50;1.40;;;;;;;12.53;100.00;99423.47;4379012;32;20070;-68
2022/09/02 02:45:12;;;;;;;1.80;1.45;;;;;;;12.15;100.00;99414.37;4369792;32;20047;-69
2022/09/02 02:47:41;;;;;;;4.05;1.58;;;;;;;12.15;100.00;99425.16;4367562;32;20053;-68
2022/09/02 02:50:11;;;;;;;3.83;1.85;;;;;;;12.38;100.00;99421.41;4368324;32;20046;-68
2022/09/02 02:52:39;;;;;;;11.15;1.62;;;;;;;12.48;100.00;99423.41;4366222;32;20044;-68
2022/09/02 02:55:09;;;;;;;1.55;1.45;;;;;;;12.53;100.00;99423.47;4368039;32;20046;-67
2022/09/02 02:57:38;;;;;;;3.47;1.60;;;;;;;12.41;100.00;99433.59;4366558;32;20024;-67
2022/09/02 03:00:30;;;;;;;1.58;1.48;;;;;;;12.44;100.00;99424.97;4366911;32;20073;-71
2022/09/02 03:03:05;;;;;;;7.12;1.50;;;;;;;12.08;100.00;99394.88;4385084;32;20031;-67
2022/09/02 03:05:34;;;;;;;1.50;1.40;;;;;;;12.49;100.00;99422.31;4386758;32;20077;-67
2022/09/02 03:08:02;;;;;;;2.05;1.27;;;;;;;12.07;100.00;99433.69;4403971;32;20442;-68
2022/09/02 03:10:32;;;;;;;1.85;1.20;;;;;;;11.62;100.00;99387.72;4369699;32;20023;-68
2022/09/02 03:12:59;;;;;;;1.20;1.02;;;;;;;11.63;100.00;99388.53;4374039;32;20064;-68
2022/09/02 03:15:26;;;;;;;1.12;1.10;;;;;;;11.98;100.00;99428.75;4410877;32;20056;-68
2022/09/02 03:17:54;;;;;;;1.12;1.02;;;;;;;11.86;100.00;99424.47;4425925;32;20044;-71
2022/09/02 03:20:22;;;;;;;1.55;1.00;;;;;;;11.66;100.00;99392.63;4431238;32;20046;-68
2022/09/02 03:22:50;;;;;;;6.05;1.60;;;;;;;12.03;100.00;99432.56;4430336;32;20359;-68
2022/09/02 03:25:19;;;;;;;1.35;1.25;;;;;;;11.88;100.00;99422.34;4402427;32;20049;-68
2022/09/02 03:27:46;;;;;;;2.08;1.00;;;;;;;12.18;100.00;99432.75;4400160;32;20478;-71
2022/09/02 03:30:16;;;;;;;1.85;1.23;;;;;;;12.00;100.00;99431.19;4414203;32;20483;-69
2022/09/02 03:32:42;;;;;;;1.05;1.05;;;;;;;12.21;100.00;99426.06;4415660;32;20454;-68
2022/09/02 03:35:11;;;;;;;3.08;1.20;;;;;;;11.86;100.00;99417.19;4415787;32;20046;-68
2022/09/02 03:37:38;;;;;;;2.20;1.10;;;;;;;12.02;100.00;99429.06;4414655;32;20076;-68
2022/09/02 03:40:08;;;;;;;1.02;1.00;;;;;;;11.89;100.00;99427.50;4413246;32;20063;-68
2022/09/02 03:42:34;;;;;;;1.65;0.85;;;;;;;11.71;100.00;99395.38;4459347;32;20185;-68
2022/09/02 03:45:03;;;;;;;1.23;1.12;;;;;;;11.70;100.00;99426.16;4463402;32;20041;-69
2022/09/02 03:47:29;;;;;;;1.27;1.17;;;;;;;11.57;100.00;99405.72;4463326;32;20417;-71
2022/09/02 03:49:56;;;;;;;5.57;1.15;;;;;;;11.62;100.00;99433.56;4427349;32;20063;-72
2022/09/02 03:52:23;;;;;;;1.42;0.90;;;;;;;11.75;100.00;99435.13;4428658;32;20073;-69
2022/09/02 03:54:50;;;;;;;0.85;0.85;;;;;;;11.76;100.00;99425.97;4430215;32;20058;-69
2022/09/02 03:57:16;;;;;;;4.00;1.25;;;;;;;11.64;100.00;99422.53;4428914;32;20042;-69
2022/09/02 03:59:43;;;;;;;4.87;1.30;;;;;;;11.11;100.00;99369.97;4424689;32;20403;-70
2022/09/02 04:02:11;;;;;;;9.10;1.23;;;;;;;11.19;100.00;99405.41;4432378;32;20085;-70
2022/09/02 04:04:38;;;;;;;1.17;1.12;;;;;;;11.35;100.00;99414.56;4426979;32;20062;-70
2022/09/02 04:07:04;;;;;;;1.17;1.08;;;;;;;11.09;100.00;99381.00;4412653;32;20046;-70
2022/09/02 04:09:30;;;;;;;3.05;1.20;;;;;;;11.41;100.00;99439.72;4380674;32;20120;-70
2022/09/02 04:11:58;;;;;;;2.90;1.20;;;;;;;11.19;100.00;99413.50;4371323;32;20359;-70
2022/09/02 04:14:24;;;;;;;1.37;1.20;;;;;;;11.43;100.00;99451.06;4336323;33;20062;-70
2022/09/02 04:16:50;;;;;;;2.35;2.15;;;;;;;11.22;100.00;99426.47;4337573;33;20080;-69
2022/09/02 04:19:17;;;;;;;1.77;1.67;;;;;;;11.10;100.00;99385.31;4339674;33;20048;-69
2022/09/02 04:21:44;;;;;;;0.80;0.80;;;;;;;11.44;100.00;99450.03;4358050;32;20051;-72
2022/09/02 04:24:11;;;;;;;0.90;0.90;;;;;;;11.09;100.00;99400.66;4324341;33;20076;-70
2022/09/02 04:26:39;;;;;;;1.40;1.30;;;;;;;11.55;100.00;99457.22;4321131;33;20062;-69
2022/09/02 04:29:06;;;;;;;2.08;0.90;;;;;;;11.05;100.00;99412.16;4309673;33;20765;-69
2022/09/02 04:31:33;;;;;;;5.47;1.20;;;;;;;11.19;100.00;99418.06;4309363;33;20033;-71
2022/09/02 04:34:00;;;;;;;3.42;1.15;;;;;;;11.52;100.00;99456.88;4293843;33;20170;-69
2022/09/02 04:36:27;;;;;;;1.20;1.20;;;;;;;11.61;100.00;99456.22;4293814;33;20055;-70
2022/09/02 04:38:56;;;;;;;0.93;0.90;;;;;;;11.83;100.00;99460.84;4305382;33;20107;-69
2022/09/02 04:41:27;;;;;;;3.08;1.30;;;;;;;11.69;100.00;99451.47;4322320;33;20119;-70
2022/09/02 04:43:56;;;;;;;2.00;1.30;;;;;;;12.04;100.00;99458.50;4324015;33;20393;-70
2022/09/02 04:46:24;;;;;;;2.03;1.23;;;;;;;11.69;100.00;99435.28;4319935;33;20037;-73
2022/09/02 04:48:51;;;;;;;1.48;0.98;;;;;;;11.50;100.00;99422.06;4323510;33;20094;-70
2022/09/02 04:51:20;;;;;;;4.75;1.40;;;;;;;11.73;100.00;99468.81;4338342;33;21055;-71
2022/09/02 04:53:49;;;;;;;1.15;1.05;;;;;;;11.84;100.00;99467.91;4338289;33;20054;-72
2022/09/02 04:56:20;;;;;;;0.80;0.80;;;;;;;11.45;100.00;99424.69;4373183;32;20036;-72
2022/09/02 04:58:49;;;;;;;1.42;1.33;;;;;;;11.23;100.00;99390.38;4380701;32;20068;-73
2022/09/02 05:01:27;;;;;;;3.42;0.90;;;;;;;11.76;100.00;99425.16;4410635;32;20042;-70
2022/09/02 05:03:54;;;;;;;1.08;0.90;;;;;;;12.08;100.00;99475.84;4413813;32;20046;-70
2022/09/02 05:06:25;;;;;;;0.93;0.93;;;;;;;11.92;100.00;99477.50;4420439;32;20119;-70
2022/09/02 05:08:55;;;;;;;1.52;1.05;;;;;;;12.22;100.00;99479.81;4412187;32;20052;-69
2022/09/02 05:11:27;;;;;;;0.82;0.82;;;;;;;11.93;100.00;99442.13;4420484;32;20046;-69
2022/09/02 05:13:56;;;;;;;5.35;1.15;;;;;;;12.28;100.00;99476.09;4406242;32;20076;-69
2022/09/02 05:16:28;;;;;;;1.45;1.10;;;;;;;12.24;100.00;99447.97;4397583;32;20057;-73
2022/09/02 05:18:56;;;;;;;4.10;1.20;;;;;;;12.22;100.00;99439.31;4398489;32;20076;-68
2022/09/02 05:21:24;;;;;;;1.30;1.20;;;;;;;12.31;100.00;99475.59;4397662;32;20046;-70
2022/09/02 05:23:52;;;;;;;1.15;1.15;;;;;;;12.38;100.00;99474.59;4409467;32;20074;-69
2022/09/02 05:26:18;;;;;;;19.83;1.12;;;;;;;12.53;100.00;99478.28;4407329;32;20034;-70
2022/09/02 05:28:46;;;;;;;2.70;1.42;;;;;;;12.23;100.00;99430.13;4418026;32;20102;-69
2022/09/02 05:31:16;;;;;;;4.93;1.10;;;;;;;12.52;100.00;99454.25;4416529;32;20416;-69
2022/09/02 05:33:43;;;;;;;1.42;0.90;;;;;;;12.29;100.00;99391.31;4412740;32;20082;-69
2022/09/02 05:36:14;;;;;;;1.87;1.23;;;;;;;12.28;100.00;99413.97;4407741;32;20034;-71
2022/09/02 05:38:41;;;;;;;4.35;1.37;;;;;;;12.78;100.00;99459.94;4408847;32;20095;-69
2022/09/02 05:41:10;;;;;;;4.40;1.50;;;;;;;12.58;100.00;99431.63;4386390;32;20031;-70
2022/09/02 05:43:39;;;;;;;1.40;1.20;;;;;;;12.94;100.00;99464.44;4385261;32;20430;-70
2022/09/02 05:46:08;;;;;;;3.53;1.12;;;;;;;12.69;100.00;99437.97;4402391;32;20030;-72
2022/09/02 05:51:23;;;;;;;1.55;0.80;;;;;;;13.07;100.00;99466.72;4398093;32;20059;-75
2022/09/02 05:53:56;;;;;;;0.90;0.90;;;;;;;13.13;100.00;99469.47;4400717;32;20057;-75
2022/09/02 05:56:23;;;;;;;0.85;0.55;;;;;;;13.35;100.00;99483.78;4401540;32;20042;-74
2022/09/02 05:58:50;;;;;;;6.60;2.10;;;;;;;13.23;100.00;99480.41;4368252;32;20145;-73
2022/09/02 06:01:18;;;;;;;10.65;1.77;;;;;;;13.39;100.00;99484.91;4366852;32;20027;-74
2022/09/02 06:03:46;;;;;;;1.90;1.08;;;;;;;13.39;100.00;99484.91;4353828;32;20032;-77
2022/09/02 06:06:13;;;;;;;1.00;0.90;;;;;;;13.47;100.00;99485.53;4334038;33;20434;-73
2022/09/02 06:08:41;;;;;;;0.90;0.90;;;;;;;13.32;100.00;99424.75;4322272;33;20036;-73
2022/09/02 06:11:09;;;;;;;5.78;0.77;;;;;;;13.70;100.00;99471.62;4309909;33;20325;-72
2022/09/02 06:13:39;;;;;;;3.25;0.93;;;;;;;13.91;100.00;99480.72;4322076;33;20036;-73
2022/09/02 06:16:09;;;;;;;0.80;0.80;;;;;;;13.99;100.00;99446.91;4311563;33;20405;-74
2022/09/02 06:18:42;;;;;;;0.70;0.70;;;;;;;14.15;100.00;99481.13;4322080;33;20037;-72
2022/09/02 06:21:08;;;;;;;1.08;1.08;;;;;;;14.17;100.00;99483.59;4323231;33;20062;-72
2022/09/02 06:23:37;;;;;;;5.68;1.00;;;;;;;13.89;100.00;99444.16;4323099;33;20040;-71
2022/09/02 06:26:06;;;;;;;1.75;0.73;;;;;;;14.42;100.00;99447.66;4321765;33;20062;-73
2022/09/02 06:28:34;;;;;;;0.90;0.90;;;;;;;14.44;100.00;99441.97;4324158;33;20044;-71
2022/09/02 06:31:07;;;;;;;2.15;0.90;;;;;;;14.57;100.00;99492.97;4344423;33;20083;-71
2022/09/02 06:33:34;;;;;;;;;;;;;;;14.30;100.00;99434.34;4344033;33;20055;-71
2022/09/02 06:36:06;;;;;;;3.62;0.77;;;;;;;14.80;100.00;99491.72;4328907;33;19936;-76
2022/09/02 06:38:37;;;;;;;;;;;;;;;14.69;100.00;99480.06;4338677;32;20051;-72
2022/09/02 06:41:06;;;;;;;0.80;0.80;;;;;;;15.05;100.00;99492.91;4374690;32;19934;-72
2022/09/02 06:43:34;;;;;;;3.33;0.93;;;;;;;14.38;100.00;99460.13;4374119;32;20067;-73
2022/09/02 06:46:03;;;;;;;1.25;1.15;;;;;;;14.52;100.00;99458.53;4372149;32;20047;-73
2022/09/02 06:48:30;;;;;;;3.20;0.95;;;;;;;14.67;100.00;99492.22;4374815;32;20047;-72
2022/09/02 06:50:57;;;;;;;1.02;0.90;;;;;;;14.46;100.00;99454.19;4372554;32;20362;-71
2022/09/02 06:53:23;;;;;;;0.95;0.95;;;;;;;14.84;100.00;99492.03;4353553;33;20431;-71
2022/09/02 06:55:50;;;;;;;0.75;0.75;;;;;;;14.54;100.00;99440.12;4354499;32;20110;-73
2022/09/02 06:58:17;;;;;;;1.55;0.90;;;;;;;15.01;100.00;99495.34;4351512;32;20066;-71
2022/09/02 07:00:49;;;;;;;1.15;1.02;;;;;;;14.99;100.00;99478.50;4355201;32;20027;-69
2022/09/02 07:06:09;;;;;;;3.08;0.93;;;;;;;15.13;100.00;99495.06;4351188;32;20039;-72
2022/09/02 07:08:39;;;;;;;3.58;1.00;;;;;;;15.44;100.00;99495.94;4352806;32;20071;-71
2022/09/02 07:11:14;;;;;;;2.05;1.00;;;;;;;15.36;100.00;99503.78;4311528;33;20022;-71
2022/09/02 07:13:41;;;;;;;0.80;0.80;;;;;;;15.51;100.00;99506.53;4362493;32;20077;-71
2022/09/02 07:16:08;;;;;;;0.98;0.98;;;;;;;15.52;100.00;99508.13;4392425;32;20042;-70
2022/09/02 07:18:35;;;;;;;3.92;0.93;;;;;;;15.64;100.00;99482.66;4387918;32;20445;-71
2022/09/02 07:21:03;;;;;;;3.97;0.98;;;;;;;15.54;100.00;99473.41;4382657;32;20458;-76
2022/09/02 07:23:29;;;;;;;0.95;0.90;;;;;;;15.77;100.00;99468.53;4381108;32;20053;-70
2022/09/02 07:25:56;;;;;;;1.35;0.68;;;;;;;15.93;100.00;99502.72;4384725;32;20053;-70
2022/09/02 07:28:23;;;;;;;3.90;1.00;;;;;;;16.02;100.00;99477.72;4382166;32;20409;-73
2022/09/02 07:30:53;;;;;;;5.75;1.00;;;;;;;16.23;100.00;99516.53;4375188;32;20031;-71
2022/09/02 07:33:21;;;;;;;0.90;0.90;;;;;;;16.05;100.00;99509.75;4368696;32;20087;-72
2022/09/02 07:35:50;;;;;;;3.55;0.90;;;;;;;15.70;100.00;99446.25;4373889;32;20052;-72
2022/09/02 07:38:18;;;;;;;0.70;0.70;;;;;;;16.17;100.00;99507.59;4380752;32;20130;-72
2022/09/02 07:40:45;;;;;;;0.68;0.68;;;;;;;15.78;100.00;99487.28;4379814;32;20455;-74
2022/09/02 07:43:12;;;;;;;1.55;0.88;;;;;;;16.09;100.00;99517.09;4372284;32;20210;-71
2022/09/02 07:45:42;;;;;;;0.82;0.80;;;;;;;15.83;100.00;99464.75;4349128;32;20528;-74
2022/09/02 07:48:08;;;;;;;4.12;0.80;;;;;;;16.19;100.00;99510.03;4361194;32;20070;-75
2022/09/02 07:50:36;;;;;;;2.87;1.00;;;;;;;16.25;100.00;99511.66;4378781;32;20507;-73
2022/09/02 07:53:05;;;;;;;0.90;0.70;;;;;;;15.80;100.00;99432.69;4360882;32;20035;-73
2022/09/02 07:55:35;;;;;;;2.40;0.62;;;;;;;16.36;100.00;99515.16;4351196;32;20074;-72
2022/09/02 07:58:03;;;;;;;5.20;0.95;;;;;;;16.55;100.00;99516.16;4340753;32;20058;-72
2022/09/02 08:00:31;;;;;;;4.70;1.60;;;;;;;16.29;100.00;99475.50;4348869;32;20039;-72
2022/09/02 08:02:59;;;;;;;2.78;1.00;;;;;;;16.29;100.00;99480.09;4352286;32;20048;-75
2022/09/02 08:05:33;;;;;;;0.90;0.90;;;;;;;16.27;100.00;99485.81;4353152;32;20103;-72
2022/09/02 08:08:00;;;;;;;2.20;0.88;;;;;;;16.45;100.00;99514.31;4354008;32;20057;-72
2022/09/02 08:10:28;;;;;;;0.70;0.70;;;;;;;16.48;100.00;99512.91;4352078;32;20170;-72
2022/09/02 08:12:56;;;;;;;0.70;0.70;;;;;;;16.71;100.00;99506.84;4351803;32;20066;-76
2022/09/02 08:15:23;;;;;;;2.90;0.70;;;;;;;16.40;100.00;99478.16;4362922;32;20789;-73
2022/09/02 08:17:49;;;;;;;1.95;0.95;;;;;;;16.42;100.00;99511.31;4396188;32;20072;-72
2022/09/02 08:20:22;;;;;;;2.40;0.80;;;;;;;16.29;100.00;99508.09;4411499;32;20054;-73
2022/09/02 08:22:49;;;;;;;1.40;1.30;;;;;;;16.14;100.00;99486.41;4418966;32;20041;-76
2022/09/02 08:25:17;;;;;;;1.77;1.20;;;;;;;16.35;100.00;99514.31;4396261;32;20035;-72
2022/09/02 08:27:44;;;;;;;3.35;0.82;;;;;;;16.55;100.00;99516.16;4399474;32;20380;-72
2022/09/02 08:30:11;;;;;;;1.12;1.02;;;;;;;16.56;100.00;99477.03;4399062;32;20091;-71
2022/09/02 08:32:38;;;;;;;4.12;1.08;;;;;;;16.81;100.00;99505.19;4397867;32;20073;-73
2022/09/02 08:35:06;;;;;;;3.30;1.67;;;;;;;16.86;100.00;99475.28;4397598;32;20178;-76
2022/09/02 08:37:34;;;;;;;1.42;1.23;;;;;;;16.94;100.00;99503.78;4399406;32;20140;-72
2022/09/02 08:40:04;;;;;;;0.90;0.90;;;;;;;17.09;100.00;99511.88;4398530;32;20177;-71
2022/09/02 08:42:45;;;;;;;0.90;0.90;;;;;;;16.79;100.00;99508.19;4397707;32;20039;-74
2022/09/02 08:45:12;;;;;;;0.77;0.77;;;;;;;17.12;100.00;99510.50;4366997;32;20034;-75
2022/09/02 08:47:50;;;;;;;1.00;0.90;;;;;;;16.96;100.00;99507.88;4367363;32;20020;-73
2022/09/02 08:50:18;;;;;;;1.50;1.20;;;;;;;17.15;100.00;99496.31;4368110;32;20673;-74
2022/09/02 08:52:55;;;;;;;6.18;0.90;;;;;;;16.70;100.00;99475.34;4366219;32;20080;-78
2022/09/02 08:55:27;;;;;;;3.90;1.20;;;;;;;17.08;100.00;99482.22;4372121;32;20412;-73
2022/09/02 08:57:56;;;;;;;0.68;0.68;;;;;;;16.85;100.00;99474.47;4368253;32;20042;-73
2022/09/02 09:00:22;;;;;;;1.37;0.60;;;;;;;17.18;100.00;99514.81;4365374;32;20104;-77
2022/09/02 09:03:08;;;;;;;3.75;0.65;;;;;;;17.00;97.59;99500.75;4367559;32;20055;-73
2022/09/02 09:05:51;;;;;;;5.05;1.05;;;;;;;17.21;100.00;99514.25;4367333;32;20146;-73
2022/09/02 09:08:37;;;;;;;1.55;0.80;;;;;;;17.30;100.00;99512.56;4321581;33;20050;-73
2022/09/02 09:11:19;;;;;;;0.93;0.70;;;;;;;17.21;100.00;99504.16;4309655;33;20059;-72
2022/09/02 09:13:58;;;;;;;;;;;;;;;17.61;98.22;99485.09;4308148;33;20045;-75
2022/09/02 09:16:41;;;;;;;0.52;0.52;;;;;;;17.72;92.90;99508.41;4312693;33;20063;-74
2022/09/02 09:19:12;;;;;;;0.75;0.70;;;;;;;17.70;93.51;99505.19;4321584;33;20070;-73
2022/09/02 09:21:41;;;;;;;1.33;0.70;;;;;;;17.45;92.25;99432.69;4323203;33;20044;-72
2022/09/02 09:24:17;;;;;;;9.82;2.15;;;;;;;17.71;95.65;99485.03;4322872;33;20037;-73
2022/09/02 09:26:46;;;;;;;4.37;1.08;;;;;;;18.09;85.36;99495.31;4321950;33;20052;-76
2022/09/02 09:29:12;;;;;;;6.37;1.30;;;;;;;18.03;87.45;99502.75;4336699;32;20028;-72
2022/09/02 09:31:40;;;;;;;5.40;0.98;;;;;;;18.00;89.18;99505.22;4334733;33;20321;-73
2022/09/02 09:34:10;;;;;;;0.60;0.60;;;;;;;17.69;89.67;99503.53;4337761;33;20059;-73
2022/09/02 09:36:39;;;;;;;0.75;0.75;;;;;;;17.25;82.69;99439.13;4346725;32;20170;-72
2022/09/02 09:39:20;;;;;;;0.50;0.50;;;;;;;17.96;81.04;99502.25;4351898;32;20053;-72
2022/09/02 09:41:48;;;;;;;0.82;0.82;;;;;;;18.25;73.38;99490.50;4361277;32;20449;-75
2022/09/02 09:44:36;;;;;;;0.73;0.73;;;;;;;17.91;79.08;99458.72;4352840;32;20069;-74
2022/09/02 09:47:08;;;;;;;3.10;0.75;;;;;;;18.45;80.40;99471.19;4365217;32;20083;-74
2022/09/02 09:49:36;;;;;;;0.60;0.60;;;;;;;18.69;83.18;99497.63;4351644;32;20101;-73
2022/09/02 09:52:03;;;;;;;0.73;0.73;;;;;;;18.12;73.64;99464.75;4351218;33;20254;-74
2022/09/02 09:54:30;;;;;;;1.27;0.80;;;;;;;17.66;74.93;99438.75;4351604;33;20031;-73
2022/09/02 09:57:13;;;;;;;1.48;0.75;;;;;;;17.94;77.11;99490.84;4352989;33;20067;-73
2022/09/02 09:59:44;;;;;;;0.90;0.90;;;;;;;18.48;74.76;99459.72;4358236;32;20065;-72
2022/09/02 10:02:22;;;;;;;1.70;0.80;;;;;;;18.48;72.01;99497.87;4356878;32;20079;-74
2022/09/02 10:04:52;;;;;;;1.30;1.20;;;;;;;18.57;74.33;99491.78;4374867;32;20110;-74
2022/09/02 10:07:40;;;;;;;6.53;0.68;;;;;;;18.27;76.25;99482.87;4374440;32;20070;-73
2022/09/02 10:10:16;;;;;;;1.00;0.70;;;;;;;18.37;73.17;99485.47;4381589;32;20077;-74
2022/09/02 10:12:44;;;;;;;6.37;0.75;;;;;;;17.83;79.18;99456.59;4398089;32;20036;-75
2022/09/02 10:15:11;;;;;;;2.62;0.85;;;;;;;17.70;78.79;99437.09;4373384;32;20096;-73
2022/09/02 10:17:39;;;;;;;0.90;0.73;;;;;;;17.85;80.91;99441.56;4370995;32;20106;-77
2022/09/02 10:20:31;;;;;;;1.77;0.50;;;;;;;17.92;82.87;99452.19;4355074;32;20117;-74
2022/09/02 10:23:14;;;;;;;0.60;0.60;;;;;;;18.48;77.94;99476.06;4354759;32;20062;-78
2022/09/02 10:26:03;;;;;;;2.28;0.88;;;;;;;17.98;73.17;99453.72;4344597;32;20036;-73
2022/09/02 10:29:05;;;;;;;0.77;0.77;;;;;;;18.20;76.29;99476.94;4359272;32;20028;-74
2022/09/02 10:31:49;;;;;;;0.70;0.70;;;;;;;18.42;81.45;99439.06;4351717;32;20093;-72
2022/09/02 10:34:34;;;;;;;0.60;0.60;;;;;;;19.13;78.40;99473.88;4359223;32;20051;-76
2022/09/02 10:37:20;;;;;;;0.52;0.52;;;;;;;19.34;83.63;99475.19;4360414;32;20079;-75
2022/09/02 10:39:53;;;;;;;0.98;0.73;;;;;;;19.11;63.97;99476.91;4365966;32;20057;-73
2022/09/02 10:42:37;;;;;;;4.43;0.77;;;;;;;19.42;68.81;99479.19;4361421;32;20117;-74
2022/09/02 10:45:23;;;;;;;0.40;0.40;;;;;;;19.05;69.81;99431.69;4365203;32;20043;-75
2022/09/02 10:48:07;;;;;;;0.73;0.73;;;;;;;18.83;63.95;99424.88;4364001;32;20129;-75
2022/09/02 10:50:47;;;;;;;0.55;0.55;;;;;;;19.13;66.94;99488.34;4355834;32;20349;-78
2022/09/02 10:53:16;;;;;;;1.95;0.52;;;;;;;19.24;70.18;99486.25;4369293;32;20166;-76
2022/09/02 10:56:13;;;;;;;0.77;0.77;;;;;;;19.03;68.71;99485.75;4377917;32;20043;-74
2022/09/02 10:58:57;;;;;;;0.85;0.60;;;;;;;19.83;77.88;99481.22;4356099;32;20067;-72
2022/09/02 11:01:53;;;;;;;2.00;0.75;;;;;;;19.83;63.33;99481.22;4374474;32;20072;-74
2022/09/02 11:04:23;;;;;;;0.70;0.70;;;;;;;19.92;64.45;99467.69;4370339;32;20101;-73
2022/09/02 11:06:50;;;;;;;1.17;0.65;;;;;;;18.83;67.10;99454.91;4381239;32;20368;-74
2022/09/02 11:09:26;;;;;;;2.50;0.60;;;;;;;18.96;74.82;99474.41;4379672;32;20506;-78
2022/09/02 11:12:15;;;;;;;1.25;0.73;;;;;;;18.68;72.11;99441.47;4372863;32;20076;-72
2022/09/02 11:15:02;;;;;;;1.85;0.80;;;;;;;18.88;76.28;99475.87;4387305;32;20420;-72
2022/09/02 11:17:51;;;;;;;0.50;0.50;;;;;;;18.90;80.79;99475.59;4385332;32;20105;-69
2022/09/02 11:20:44;;;;;;;1.80;0.80;;;;;;;20.22;66.92;99452.66;4384674;32;20101;-72
2022/09/02 11:23:30;;;;;;;0.68;0.68;;;;;;;20.88;57.21;99466.06;4339675;33;20521;-70
2022/09/02 11:26:20;;;;;;;4.37;1.20;;;;;;;21.57;55.83;99454.06;4329403;32;20085;-73
2022/09/02 11:29:00;;;;;;;1.73;0.75;;;;;;;22.07;55.44;99423.72;4369904;32;20437;-71
2022/09/02 11:32:12;;;;;;;5.05;0.73;;;;;;;22.14;51.40;99421.31;4375237;32;20035;-76
2022/09/02 11:34:47;;;;;;;0.60;0.60;;;;;;;21.51;50.36;99455.34;4361537;32;20221;-71
2022/09/02 11:37:34;;;;;;;2.62;0.65;;;;;;;21.20;50.90;99420.44;4364039;32;20078;-71
2022/09/02 11:40:12;;;;;;;3.35;0.70;;;;;;;21.30;50.87;99450.34;4378670;32;20368;-74
2022/09/02 11:43:03;;;;;;;1.87;0.70;;;;;;;21.38;53.90;99413.97;4413713;32;20046;-69
2022/09/02 11:45:42;;;;;;;1.67;0.60;;;;;;;21.50;53.03;99448.25;4395266;32;20055;-71
2022/09/02 11:48:33;;;;;;;0.50;0.50;;;;;;;21.15;49.97;99456.16;4399097;32;20035;-71
2022/09/02 11:50:59;;;;;;;3.50;0.70;;;;;;;22.37;51.58;99443.22;4400191;32;20387;-72